Anzahl Datensätze: 284
min. Temperatur: 7.5 °C
max. Temperatur: 14.6 °C
max. Windgeschwindigkeit: 17.0 km/h
Niederschlagsumme: 21.2 mm
| Datum |
Zeit |
Temp °C |
Feuchte % |
Taupunkt °C |
Luftdruck hPa |
Wind km/h |
Windrichtung |
Strahlung w/m² |
Niederschlag mm |
|---|---|---|---|---|---|---|---|---|---|
| 23.10.2025 | 00:04 | 12.4 | 92 | 11.1 | 994.1 | 0.9 | SO | 0 | 0.0 |
| 23.10.2025 | 00:09 | 12.4 | 92 | 11.1 | 994.0 | 0.4 | SSO | 0 | 0.0 |
| 23.10.2025 | 00:14 | 12.4 | 92 | 11.1 | 993.9 | 0.4 | SO | 0 | 0.0 |
| 23.10.2025 | 00:19 | 12.4 | 92 | 11.1 | 993.7 | 0.9 | SSO | 0 | 0.0 |
| 23.10.2025 | 00:24 | 12.4 | 92 | 11.1 | 993.5 | 0.9 | O | 0 | 0.0 |
| 23.10.2025 | 00:29 | 12.4 | 92 | 11.1 | 993.3 | 1.3 | O | 0 | 0.0 |
| 23.10.2025 | 00:34 | 12.5 | 92 | 11.2 | 993.2 | 0.9 | O | 0 | 0.2 |
| 23.10.2025 | 00:39 | 12.5 | 92 | 11.2 | 993.1 | 0.9 | OSO | 0 | 0.2 |
| 23.10.2025 | 00:44 | 12.5 | 92 | 11.2 | 992.9 | 0.9 | NO | 0 | 0.2 |
| 23.10.2025 | 00:49 | 12.5 | 92 | 11.2 | 992.7 | 1.8 | ONO | 0 | 0.6 |
| 23.10.2025 | 00:54 | 12.5 | 92 | 11.2 | 992.4 | 2.2 | NO | 0 | 1.2 |
| 23.10.2025 | 00:59 | 12.5 | 92 | 11.2 | 992.2 | 1.8 | O | 0 | 2.0 |
| 23.10.2025 | 01:09 | 12.5 | 92 | 11.2 | 992.0 | 2.7 | ONO | 0 | 3.0 |
| 23.10.2025 | 01:14 | 12.5 | 92 | 11.2 | 991.9 | 1.8 | ONO | 0 | 3.0 |
| 23.10.2025 | 01:20 | 12.6 | 92 | 11.3 | 991.8 | 1.8 | NO | 0 | 3.2 |
| 23.10.2025 | 01:25 | 12.6 | 92 | 11.3 | 991.8 | 0.4 | NO | 0 | 3.4 |
| 23.10.2025 | 01:30 | 12.6 | 92 | 11.3 | 991.6 | 1.3 | OSO | 0 | 3.4 |
| 23.10.2025 | 01:35 | 12.8 | 92 | 11.5 | 991.5 | 3.1 | O | 0 | 3.4 |
| 23.10.2025 | 01:40 | 12.9 | 92 | 11.6 | 991.3 | 1.8 | SO | 0 | 3.4 |
| 23.10.2025 | 01:45 | 12.9 | 92 | 11.6 | 991.1 | 1.8 | SSW | 0 | 3.4 |
| 23.10.2025 | 01:50 | 13.0 | 92 | 11.7 | 990.9 | 0.9 | NO | 0 | 3.4 |
| 23.10.2025 | 01:55 | 13.0 | 92 | 11.7 | 990.9 | 0.4 | SSO | 0 | 3.4 |
| 23.10.2025 | 02:00 | 13.1 | 92 | 11.8 | 990.6 | 1.3 | SO | 0 | 3.4 |
| 23.10.2025 | 02:05 | 13.2 | 92 | 11.9 | 990.4 | 0.9 | NO | 0 | 3.4 |
| 23.10.2025 | 02:10 | 13.4 | 92 | 12.1 | 990.2 | 1.8 | S | 0 | 3.4 |
| 23.10.2025 | 02:15 | 13.5 | 92 | 12.2 | 990.1 | 3.6 | S | 0 | 3.4 |
| 23.10.2025 | 02:20 | 13.6 | 92 | 12.3 | 989.9 | 2.7 | SSO | 0 | 3.4 |
| 23.10.2025 | 02:25 | 13.8 | 92 | 12.5 | 989.8 | 1.3 | S | 0 | 3.4 |
| 23.10.2025 | 02:30 | 13.8 | 92 | 12.5 | 989.9 | 1.8 | S | 0 | 3.4 |
| 23.10.2025 | 02:35 | 13.9 | 92 | 12.6 | 989.8 | 2.2 | ONO | 0 | 3.4 |
| 23.10.2025 | 02:40 | 13.9 | 92 | 12.6 | 989.9 | 1.8 | S | 0 | 3.4 |
| 23.10.2025 | 02:45 | 14.0 | 92 | 12.7 | 989.9 | 1.3 | SW | 0 | 3.4 |
| 23.10.2025 | 02:50 | 14.0 | 92 | 12.7 | 989.9 | 2.7 | SSW | 0 | 3.4 |
| 23.10.2025 | 02:55 | 14.1 | 92 | 12.8 | 989.7 | 1.8 | SO | 0 | 3.4 |
| 23.10.2025 | 03:00 | 14.1 | 92 | 12.8 | 989.6 | 2.2 | SSW | 0 | 3.4 |
| 23.10.2025 | 03:05 | 14.1 | 92 | 12.8 | 989.4 | 0.9 | S | 0 | 3.4 |
| 23.10.2025 | 03:10 | 14.2 | 92 | 12.9 | 989.1 | 3.1 | SO | 0 | 3.4 |
| 23.10.2025 | 03:15 | 14.3 | 92 | 13.0 | 988.9 | 3.1 | SO | 0 | 3.4 |
| 23.10.2025 | 03:20 | 14.3 | 92 | 13.0 | 988.7 | 4.0 | SSW | 0 | 3.4 |
| 23.10.2025 | 03:25 | 14.3 | 92 | 13.0 | 988.7 | 2.2 | SSO | 0 | 3.6 |
| 23.10.2025 | 03:30 | 14.3 | 92 | 13.0 | 988.2 | 4.0 | SSO | 0 | 4.4 |
| 23.10.2025 | 03:35 | 14.3 | 91 | 12.9 | 988.2 | 4.9 | S | 0 | 4.6 |
| 23.10.2025 | 03:40 | 14.2 | 91 | 12.8 | 988.1 | 2.7 | SSW | 0 | 5.0 |
| 23.10.2025 | 03:45 | 14.2 | 91 | 12.8 | 987.9 | 0.9 | SSO | 0 | 5.6 |
| 23.10.2025 | 03:50 | 14.1 | 91 | 12.7 | 987.5 | 0.9 | S | 0 | 6.0 |
| 23.10.2025 | 03:55 | 14.1 | 91 | 12.7 | 987.0 | 4.5 | S | 0 | 6.2 |
| 23.10.2025 | 04:00 | 14.1 | 91 | 12.7 | 986.8 | 0.4 | WSW | 0 | 6.4 |
| 23.10.2025 | 04:05 | 14.1 | 91 | 12.7 | 986.6 | 0.4 | O | 0 | 6.6 |
| 23.10.2025 | 04:11 | 14.1 | 91 | 12.7 | 986.6 | 0.9 | ONO | 0 | 6.6 |
| 23.10.2025 | 04:16 | 14.1 | 91 | 12.7 | 986.3 | 1.3 | WSW | 0 | 7.0 |
| 23.10.2025 | 04:21 | 14.1 | 91 | 12.7 | 986.4 | 4.9 | OSO | 0 | 7.6 |
| 23.10.2025 | 04:26 | 14.2 | 92 | 12.9 | 986.3 | 2.2 | S | 0 | 8.0 |
| 23.10.2025 | 04:31 | 14.2 | 92 | 12.9 | 986.2 | 2.7 | SSO | 0 | 8.2 |
| 23.10.2025 | 04:36 | 14.3 | 92 | 13.0 | 986.1 | 2.2 | SSO | 0 | 8.2 |
| 23.10.2025 | 04:41 | 14.3 | 92 | 13.0 | 986.0 | 3.6 | SSO | 0 | 8.2 |
| 23.10.2025 | 04:46 | 14.4 | 92 | 13.1 | 985.6 | 1.8 | O | 0 | 8.2 |
| 23.10.2025 | 04:51 | 14.4 | 92 | 13.1 | 985.6 | 2.2 | S | 0 | 8.2 |
| 23.10.2025 | 04:56 | 14.4 | 92 | 13.1 | 985.2 | 2.7 | WSW | 0 | 8.4 |
| 23.10.2025 | 05:01 | 14.4 | 92 | 13.1 | 985.3 | 2.2 | SSO | 0 | 8.4 |
| 23.10.2025 | 05:06 | 14.4 | 91 | 12.9 | 985.2 | 2.2 | SSO | 0 | 8.4 |
| 23.10.2025 | 05:11 | 14.4 | 91 | 12.9 | 985.2 | 4.0 | S | 0 | 8.4 |
| 23.10.2025 | 05:16 | 14.5 | 91 | 13.0 | 985.1 | 3.1 | SSO | 0 | 8.4 |
| 23.10.2025 | 05:21 | 14.5 | 91 | 13.0 | 984.8 | 0.9 | S | 0 | 8.6 |
| 23.10.2025 | 05:26 | 14.5 | 91 | 13.0 | 984.8 | 5.8 | SSW | 0 | 8.6 |
| 23.10.2025 | 05:31 | 14.5 | 91 | 13.0 | 984.8 | 1.8 | SW | 0 | 8.6 |
| 23.10.2025 | 05:36 | 14.6 | 91 | 13.1 | 984.8 | 4.0 | WSW | 0 | 8.6 |
| 23.10.2025 | 05:41 | 14.6 | 91 | 13.1 | 984.7 | 3.6 | S | 0 | 8.6 |
| 23.10.2025 | 05:46 | 14.6 | 91 | 13.1 | 984.6 | 2.2 | SW | 0 | 8.6 |
| 23.10.2025 | 05:51 | 14.6 | 91 | 13.1 | 984.4 | 6.3 | S | 0 | 8.6 |
| 23.10.2025 | 05:56 | 14.6 | 91 | 13.1 | 984.2 | 4.0 | S | 0 | 8.6 |
| 23.10.2025 | 06:01 | 14.6 | 91 | 13.1 | 984.0 | 0.9 | W | 0 | 8.6 |
| 23.10.2025 | 06:06 | 14.6 | 91 | 13.1 | 983.8 | 4.9 | S | 0 | 8.6 |
| 23.10.2025 | 06:11 | 14.6 | 90 | 13.0 | 983.9 | 4.0 | SSO | 0 | 8.6 |
| 23.10.2025 | 06:16 | 14.5 | 90 | 12.9 | 983.7 | 4.5 | S | 0 | 8.6 |
| 23.10.2025 | 06:21 | 14.5 | 90 | 12.9 | 983.9 | 2.7 | SW | 0 | 8.6 |
| 23.10.2025 | 06:26 | 14.4 | 89 | 12.6 | 983.9 | 3.6 | S | 0 | 8.6 |
| 23.10.2025 | 06:31 | 14.4 | 89 | 12.6 | 984.0 | 4.0 | SSW | 0 | 8.6 |
| 23.10.2025 | 06:36 | 14.4 | 88 | 12.4 | 983.9 | 4.5 | SSO | 0 | 8.6 |
| 23.10.2025 | 06:41 | 14.4 | 88 | 12.4 | 984.0 | 4.9 | SSW | 0 | 8.6 |
| 23.10.2025 | 06:47 | 14.3 | 88 | 12.3 | 984.0 | 8.0 | SO | 0 | 8.6 |
| 23.10.2025 | 06:52 | 14.3 | 88 | 12.3 | 984.1 | 2.2 | SO | 0 | 8.6 |
| 23.10.2025 | 06:57 | 14.1 | 88 | 12.1 | 984.4 | 5.4 | SSW | 0 | 8.8 |
| 23.10.2025 | 07:02 | 13.9 | 88 | 11.9 | 984.2 | 4.9 | SSW | 0 | 9.0 |
| 23.10.2025 | 07:07 | 13.5 | 88 | 11.6 | 984.1 | 1.8 | SW | 0 | 9.0 |
| 23.10.2025 | 07:12 | 13.4 | 89 | 11.6 | 984.1 | 2.7 | S | 0 | 9.0 |
| 23.10.2025 | 07:17 | 13.1 | 89 | 11.3 | 984.1 | 1.3 | SSW | 0 | 9.0 |
| 23.10.2025 | 07:22 | 13.0 | 89 | 11.2 | 984.2 | 3.1 | SSW | 0 | 9.0 |
| 23.10.2025 | 07:27 | 12.8 | 89 | 11.0 | 984.3 | 6.3 | SSW | 0 | 9.0 |
| 23.10.2025 | 07:32 | 12.6 | 89 | 10.8 | 984.3 | 4.0 | S | 0 | 9.0 |
| 23.10.2025 | 07:37 | 12.5 | 88 | 10.6 | 984.4 | 4.0 | SSO | 0 | 9.0 |
| 23.10.2025 | 07:42 | 12.3 | 88 | 10.4 | 984.4 | 4.0 | SW | 0 | 9.0 |
| 23.10.2025 | 07:47 | 12.1 | 87 | 10.0 | 984.5 | 4.5 | WSW | 0 | 9.0 |
| 23.10.2025 | 07:52 | 12.0 | 87 | 9.9 | 984.5 | 1.3 | O | 0 | 9.0 |
| 23.10.2025 | 07:57 | 11.9 | 87 | 9.8 | 984.5 | 3.1 | S | 0 | 9.0 |
| 23.10.2025 | 08:02 | 11.8 | 87 | 9.7 | 984.3 | 1.8 | S | 0 | 9.0 |
| 23.10.2025 | 08:07 | 11.8 | 87 | 9.7 | 984.4 | 3.1 | S | 0 | 9.0 |
| 23.10.2025 | 08:12 | 11.7 | 87 | 9.6 | 984.4 | 2.7 | S | 0 | 9.0 |
| 23.10.2025 | 08:17 | 11.6 | 87 | 9.5 | 984.6 | 3.1 | S | 0 | 9.0 |
| 23.10.2025 | 08:22 | 11.7 | 87 | 9.6 | 984.7 | 4.0 | SSW | 0 | 9.0 |
| 23.10.2025 | 08:27 | 11.6 | 87 | 9.5 | 984.7 | 2.2 | S | 5 | 9.0 |
| 23.10.2025 | 08:32 | 11.6 | 87 | 9.5 | 984.3 | 1.3 | S | 12 | 9.0 |
| 23.10.2025 | 08:37 | 11.6 | 87 | 9.5 | 984.2 | 4.0 | SSO | 14 | 9.0 |
| 23.10.2025 | 08:42 | 11.6 | 86 | 9.3 | 984.2 | 2.2 | SSO | 16 | 9.0 |
| 23.10.2025 | 08:47 | 11.7 | 86 | 9.4 | 984.3 | 2.7 | SSW | 12 | 9.0 |
| 23.10.2025 | 08:52 | 11.7 | 86 | 9.4 | 984.5 | 2.7 | S | 11 | 9.0 |
| 23.10.2025 | 08:57 | 11.6 | 86 | 9.3 | 984.6 | 1.8 | WSW | 14 | 9.0 |
| 23.10.2025 | 09:02 | 11.5 | 85 | 9.1 | 984.6 | 3.1 | SW | 28 | 9.0 |
| 23.10.2025 | 09:07 | 11.5 | 85 | 9.1 | 984.6 | 2.2 | SSW | 62 | 9.0 |
| 23.10.2025 | 09:12 | 11.6 | 84 | 9.0 | 985.0 | 3.6 | SSW | 49 | 9.0 |
| 23.10.2025 | 09:17 | 11.6 | 84 | 9.0 | 985.1 | 4.9 | SSW | 53 | 9.0 |
| 23.10.2025 | 09:23 | 11.6 | 83 | 8.8 | 985.1 | 2.2 | SSW | 69 | 9.0 |
| 23.10.2025 | 09:28 | 11.6 | 83 | 8.8 | 985.5 | 1.8 | SO | 81 | 9.0 |
| 23.10.2025 | 09:33 | 11.7 | 82 | 8.7 | 985.5 | 3.6 | SSW | 60 | 9.0 |
| 23.10.2025 | 09:38 | 11.7 | 82 | 8.7 | 985.6 | 3.1 | SSO | 58 | 9.0 |
| 23.10.2025 | 09:43 | 11.8 | 82 | 8.8 | 985.6 | 3.6 | S | 56 | 9.0 |
| 23.10.2025 | 09:48 | 11.8 | 82 | 8.8 | 985.6 | 3.6 | SSW | 47 | 9.0 |
| 23.10.2025 | 09:53 | 11.8 | 82 | 8.8 | 985.4 | 2.2 | S | 84 | 9.0 |
| 23.10.2025 | 09:58 | 11.8 | 81 | 8.6 | 985.3 | 4.0 | SSW | 69 | 9.0 |
| 23.10.2025 | 10:03 | 11.8 | 81 | 8.6 | 985.3 | 2.2 | S | 74 | 9.0 |
| 23.10.2025 | 10:08 | 11.8 | 81 | 8.6 | 985.3 | 2.7 | S | 127 | 9.0 |
| 23.10.2025 | 10:13 | 11.8 | 80 | 8.5 | 985.2 | 3.6 | S | 118 | 9.0 |
| 23.10.2025 | 10:18 | 11.9 | 80 | 8.6 | 985.2 | 4.9 | WSW | 134 | 9.0 |
| 23.10.2025 | 10:23 | 11.9 | 80 | 8.6 | 985.2 | 4.0 | SSW | 139 | 9.0 |
| 23.10.2025 | 10:28 | 11.9 | 79 | 8.4 | 985.3 | 5.4 | S | 132 | 9.0 |
| 23.10.2025 | 10:33 | 11.9 | 78 | 8.2 | 985.3 | 5.4 | SSO | 241 | 9.0 |
| 23.10.2025 | 10:38 | 11.9 | 77 | 8.0 | 985.1 | 6.3 | SW | 120 | 9.0 |
| 23.10.2025 | 10:43 | 11.8 | 77 | 7.9 | 984.9 | 4.5 | SSW | 74 | 9.0 |
| 23.10.2025 | 10:48 | 11.6 | 77 | 7.7 | 985.0 | 5.8 | SW | 144 | 9.0 |
| 23.10.2025 | 10:53 | 11.9 | 77 | 8.0 | 984.9 | 7.6 | SSW | 77 | 9.0 |
| 23.10.2025 | 10:58 | 11.9 | 76 | 7.8 | 984.9 | 6.7 | SW | 114 | 9.0 |
| 23.10.2025 | 11:03 | 12.0 | 75 | 7.7 | 985.0 | 4.5 | WSW | 378 | 9.0 |
| 23.10.2025 | 11:08 | 12.0 | 74 | 7.5 | 984.9 | 4.5 | SSW | 109 | 9.0 |
| 23.10.2025 | 11:13 | 12.2 | 75 | 7.9 | 984.9 | 2.2 | SSW | 490 | 9.0 |
| 23.10.2025 | 11:18 | 12.4 | 75 | 8.1 | 984.7 | 1.8 | SW | 214 | 9.0 |
| 23.10.2025 | 11:23 | 12.2 | 73 | 7.5 | 984.6 | 6.3 | SW | 190 | 9.0 |
| 23.10.2025 | 11:28 | 12.0 | 73 | 7.3 | 984.7 | 1.8 | S | 109 | 9.0 |
| 23.10.2025 | 11:33 | 11.9 | 74 | 7.4 | 984.8 | 3.1 | S | 455 | 9.0 |
| 23.10.2025 | 11:38 | 11.9 | 75 | 7.6 | 984.8 | 4.9 | SO | 174 | 9.0 |
| 23.10.2025 | 11:43 | 11.9 | 74 | 7.4 | 985.0 | 4.5 | SSO | 167 | 9.0 |
| 23.10.2025 | 11:48 | 11.7 | 74 | 7.2 | 984.9 | 4.9 | S | 232 | 9.0 |
| 23.10.2025 | 11:53 | 11.6 | 75 | 7.3 | 985.1 | 5.8 | SW | 109 | 9.0 |
| 23.10.2025 | 11:58 | 11.5 | 75 | 7.2 | 985.1 | 4.9 | OSO | 163 | 9.0 |
| 23.10.2025 | 12:04 | 11.5 | 75 | 7.2 | 985.2 | 8.9 | S | 97 | 9.0 |
| 23.10.2025 | 12:09 | 11.4 | 75 | 7.1 | 985.6 | 6.7 | SO | 137 | 9.0 |
| 23.10.2025 | 12:14 | 11.3 | 75 | 7.0 | 985.5 | 4.5 | SSW | 88 | 9.0 |
| 23.10.2025 | 12:19 | 11.3 | 76 | 7.2 | 985.7 | 4.5 | WSW | 83 | 9.0 |
| 23.10.2025 | 12:24 | 11.3 | 76 | 7.2 | 985.7 | 4.0 | WSW | 91 | 9.0 |
| 23.10.2025 | 12:29 | 11.2 | 76 | 7.1 | 985.6 | 3.6 | S | 123 | 9.0 |
| 23.10.2025 | 12:34 | 11.2 | 75 | 6.9 | 985.7 | 4.9 | W | 88 | 9.0 |
| 23.10.2025 | 12:39 | 11.3 | 76 | 7.2 | 985.7 | 5.4 | SSW | 153 | 9.0 |
| 23.10.2025 | 12:44 | 11.4 | 75 | 7.1 | 985.7 | 7.2 | SO | 105 | 9.0 |
| 23.10.2025 | 12:49 | 11.4 | 75 | 7.1 | 985.9 | 5.8 | S | 156 | 9.0 |
| 23.10.2025 | 12:54 | 11.5 | 74 | 7.0 | 985.8 | 6.3 | SW | 176 | 9.0 |
| 23.10.2025 | 12:59 | 11.5 | 74 | 7.0 | 985.7 | 4.5 | SSW | 199 | 9.0 |
| 23.10.2025 | 13:04 | 11.7 | 74 | 7.2 | 985.6 | 9.4 | S | 213 | 9.0 |
| 23.10.2025 | 13:09 | 12.0 | 73 | 7.3 | 985.5 | 7.2 | S | 167 | 9.0 |
| 23.10.2025 | 13:14 | 12.0 | 72 | 7.1 | 985.5 | 4.5 | SSW | 158 | 9.0 |
| 23.10.2025 | 13:19 | 11.9 | 72 | 7.0 | 985.5 | 6.3 | SSO | 121 | 9.0 |
| 23.10.2025 | 13:24 | 11.8 | 73 | 7.1 | 985.3 | 3.1 | SSW | 220 | 9.0 |
| 23.10.2025 | 13:29 | 11.8 | 72 | 6.9 | 985.3 | 3.1 | SSW | 178 | 9.0 |
| 23.10.2025 | 13:34 | 11.8 | 74 | 7.3 | 985.4 | 5.4 | S | 102 | 9.0 |
| 23.10.2025 | 13:39 | 11.2 | 78 | 7.5 | 985.8 | 5.4 | SSO | 67 | 9.4 |
| 23.10.2025 | 13:44 | 10.5 | 82 | 7.6 | 985.9 | 3.6 | SSO | 67 | 9.6 |
| 23.10.2025 | 13:49 | 10.1 | 84 | 7.5 | 986.0 | 5.8 | S | 93 | 9.8 |
| 23.10.2025 | 13:54 | 9.8 | 85 | 7.4 | 986.2 | 8.5 | S | 83 | 10.0 |
| 23.10.2025 | 13:59 | 9.5 | 85 | 7.1 | 986.3 | 9.8 | SSW | 70 | 10.2 |
| 23.10.2025 | 14:04 | 9.3 | 86 | 7.1 | 986.3 | 4.9 | S | 88 | 10.4 |
| 23.10.2025 | 14:09 | 9.1 | 87 | 7.1 | 986.3 | 3.6 | SSW | 88 | 10.6 |
| 23.10.2025 | 14:14 | 9.0 | 87 | 7.0 | 986.4 | 6.7 | O | 104 | 10.8 |
| 23.10.2025 | 14:19 | 8.9 | 87 | 6.9 | 986.4 | 14.8 | SSW | 67 | 11.0 |
| 23.10.2025 | 14:24 | 8.8 | 87 | 6.8 | 986.5 | 7.6 | SSW | 86 | 11.0 |
| 23.10.2025 | 14:29 | 8.7 | 87 | 6.7 | 986.5 | 5.8 | S | 97 | 11.2 |
| 23.10.2025 | 14:34 | 8.6 | 88 | 6.7 | 986.4 | 4.0 | SW | 132 | 11.4 |
| 23.10.2025 | 14:39 | 8.7 | 88 | 6.8 | 986.4 | 3.1 | S | 139 | 11.6 |
| 23.10.2025 | 14:49 | 8.6 | 88 | 6.7 | 986.3 | 4.5 | SW | 47 | 11.8 |
| 23.10.2025 | 14:54 | 8.6 | 88 | 6.7 | 986.3 | 2.2 | S | 28 | 12.0 |
| 23.10.2025 | 15:00 | 8.5 | 89 | 6.8 | 986.4 | 1.8 | SSO | 33 | 12.4 |
| 23.10.2025 | 15:05 | 8.5 | 89 | 6.8 | 986.4 | 6.3 | S | 70 | 12.6 |
| 23.10.2025 | 15:10 | 8.6 | 89 | 6.9 | 986.5 | 5.8 | SSO | 65 | 12.8 |
| 23.10.2025 | 15:15 | 8.6 | 89 | 6.9 | 986.4 | 4.9 | S | 84 | 13.0 |
| 23.10.2025 | 15:20 | 8.6 | 89 | 6.9 | 986.5 | 6.7 | SSW | 113 | 13.2 |
| 23.10.2025 | 15:25 | 8.6 | 89 | 6.9 | 986.5 | 1.3 | OSO | 105 | 13.4 |
| 23.10.2025 | 15:30 | 8.6 | 89 | 6.9 | 986.5 | 5.8 | S | 62 | 13.4 |
| 23.10.2025 | 15:35 | 8.6 | 89 | 6.9 | 986.5 | 4.5 | SW | 49 | 13.4 |
| 23.10.2025 | 15:40 | 8.6 | 89 | 6.9 | 986.7 | 4.9 | SSW | 44 | 13.4 |
| 23.10.2025 | 15:45 | 8.7 | 90 | 7.2 | 986.7 | 6.7 | SW | 90 | 13.6 |
| 23.10.2025 | 15:50 | 8.8 | 89 | 7.1 | 986.6 | 10.7 | S | 70 | 13.8 |
| 23.10.2025 | 15:55 | 8.8 | 90 | 7.2 | 986.6 | 3.6 | SSW | 58 | 14.0 |
| 23.10.2025 | 16:00 | 8.9 | 90 | 7.3 | 987.0 | 1.8 | WSW | 44 | 14.0 |
| 23.10.2025 | 16:05 | 8.9 | 90 | 7.3 | 986.9 | 7.6 | S | 23 | 14.2 |
| 23.10.2025 | 16:10 | 8.9 | 90 | 7.3 | 986.9 | 3.6 | S | 21 | 14.4 |
| 23.10.2025 | 16:15 | 8.8 | 90 | 7.2 | 986.9 | 4.9 | S | 37 | 14.8 |
| 23.10.2025 | 16:20 | 8.9 | 90 | 7.3 | 986.9 | 8.0 | SSW | 46 | 15.0 |
| 23.10.2025 | 16:25 | 8.9 | 90 | 7.3 | 987.0 | 3.6 | SSW | 19 | 15.2 |
| 23.10.2025 | 16:30 | 8.9 | 90 | 7.3 | 987.2 | 2.7 | SSW | 18 | 15.4 |
| 23.10.2025 | 16:35 | 8.9 | 90 | 7.3 | 987.2 | 2.7 | SSW | 23 | 16.0 |
| 23.10.2025 | 16:40 | 8.9 | 90 | 7.3 | 987.4 | 4.9 | SSW | 9 | 16.2 |
| 23.10.2025 | 16:45 | 8.9 | 90 | 7.3 | 987.6 | 5.8 | SSO | 5 | 16.8 |
| 23.10.2025 | 16:50 | 8.9 | 91 | 7.5 | 987.6 | 3.6 | S | 16 | 17.6 |
| 23.10.2025 | 16:55 | 8.9 | 91 | 7.5 | 987.8 | 7.2 | WSW | 19 | 18.0 |
| 23.10.2025 | 17:00 | 8.9 | 91 | 7.5 | 987.8 | 2.7 | SW | 12 | 18.0 |
| 23.10.2025 | 17:05 | 8.9 | 91 | 7.5 | 988.1 | 4.5 | SSW | 12 | 18.2 |
| 23.10.2025 | 17:10 | 9.0 | 91 | 7.6 | 988.2 | 5.4 | SW | 14 | 18.4 |
| 23.10.2025 | 17:15 | 9.0 | 91 | 7.6 | 988.3 | 4.5 | S | 12 | 18.6 |
| 23.10.2025 | 17:20 | 9.0 | 91 | 7.6 | 988.5 | 2.2 | SW | 39 | 18.6 |
| 23.10.2025 | 17:25 | 9.0 | 91 | 7.6 | 988.5 | 4.9 | SSW | 30 | 18.8 |
| 23.10.2025 | 17:30 | 9.0 | 91 | 7.6 | 988.7 | 2.2 | SW | 25 | 18.8 |
| 23.10.2025 | 17:35 | 9.1 | 91 | 7.7 | 988.8 | 3.6 | SW | 18 | 18.8 |
| 23.10.2025 | 17:41 | 9.1 | 91 | 7.7 | 988.9 | 2.7 | SSO | 16 | 18.8 |
| 23.10.2025 | 17:46 | 9.1 | 91 | 7.7 | 989.1 | 3.1 | SW | 14 | 19.0 |
| 23.10.2025 | 17:51 | 9.1 | 91 | 7.7 | 989.2 | 2.2 | SSW | 26 | 19.0 |
| 23.10.2025 | 17:56 | 9.1 | 91 | 7.7 | 989.5 | 4.0 | SSW | 12 | 19.0 |
| 23.10.2025 | 18:01 | 9.1 | 91 | 7.7 | 989.6 | 7.6 | WSW | 14 | 19.0 |
| 23.10.2025 | 18:06 | 9.0 | 91 | 7.6 | 989.8 | 2.2 | S | 12 | 19.0 |
| 23.10.2025 | 18:11 | 9.0 | 91 | 7.6 | 990.0 | 4.5 | SW | 7 | 19.0 |
| 23.10.2025 | 18:16 | 9.0 | 91 | 7.6 | 990.2 | 3.6 | WSW | 5 | 19.2 |
| 23.10.2025 | 18:21 | 9.0 | 91 | 7.6 | 990.3 | 8.5 | SW | 0 | 19.2 |
| 23.10.2025 | 18:26 | 9.0 | 91 | 7.6 | 990.6 | 5.4 | SW | 0 | 19.2 |
| 23.10.2025 | 18:31 | 9.0 | 91 | 7.6 | 990.7 | 9.8 | SW | 0 | 19.2 |
| 23.10.2025 | 18:36 | 8.9 | 91 | 7.5 | 990.8 | 4.0 | SW | 0 | 19.2 |
| 23.10.2025 | 18:41 | 8.9 | 91 | 7.5 | 991.1 | 1.8 | SSO | 0 | 19.2 |
| 23.10.2025 | 18:46 | 8.9 | 91 | 7.5 | 991.3 | 2.7 | SSW | 0 | 19.2 |
| 23.10.2025 | 18:51 | 8.9 | 91 | 7.5 | 991.3 | 3.6 | SW | 0 | 19.2 |
| 23.10.2025 | 18:56 | 8.9 | 91 | 7.5 | 991.5 | 5.4 | SSW | 0 | 19.2 |
| 23.10.2025 | 19:01 | 8.9 | 91 | 7.5 | 991.7 | 4.5 | SSW | 0 | 19.2 |
| 23.10.2025 | 19:06 | 8.9 | 91 | 7.5 | 991.8 | 6.3 | SW | 0 | 19.2 |
| 23.10.2025 | 19:11 | 8.9 | 91 | 7.5 | 992.0 | 5.4 | SW | 0 | 19.2 |
| 23.10.2025 | 19:16 | 8.9 | 91 | 7.5 | 992.3 | 2.7 | S | 0 | 19.2 |
| 23.10.2025 | 19:21 | 8.8 | 91 | 7.4 | 992.6 | 3.1 | SSW | 0 | 19.2 |
| 23.10.2025 | 19:26 | 8.8 | 90 | 7.2 | 992.7 | 1.8 | SSW | 0 | 19.2 |
| 23.10.2025 | 19:31 | 8.7 | 90 | 7.2 | 992.9 | 2.7 | WSW | 0 | 19.2 |
| 23.10.2025 | 19:36 | 8.7 | 90 | 7.2 | 993.1 | 1.3 | SSW | 0 | 19.2 |
| 23.10.2025 | 19:41 | 8.7 | 90 | 7.2 | 993.3 | 1.8 | W | 0 | 19.2 |
| 23.10.2025 | 19:46 | 8.7 | 90 | 7.2 | 993.5 | 3.1 | WSW | 0 | 19.2 |
| 23.10.2025 | 19:51 | 8.7 | 90 | 7.2 | 993.6 | 2.7 | S | 0 | 19.2 |
| 23.10.2025 | 19:56 | 8.7 | 89 | 7.0 | 993.8 | 2.7 | WSW | 0 | 19.2 |
| 23.10.2025 | 20:01 | 8.7 | 89 | 7.0 | 993.9 | 4.0 | SSW | 0 | 19.2 |
| 23.10.2025 | 20:06 | 8.7 | 89 | 7.0 | 994.0 | 2.2 | S | 0 | 19.2 |
| 23.10.2025 | 20:11 | 8.7 | 89 | 7.0 | 994.2 | 3.1 | W | 0 | 19.2 |
| 23.10.2025 | 20:16 | 8.7 | 89 | 7.0 | 994.3 | 1.3 | SSW | 0 | 19.2 |
| 23.10.2025 | 20:21 | 8.7 | 89 | 7.0 | 994.2 | 2.2 | S | 0 | 19.2 |
| 23.10.2025 | 20:26 | 8.8 | 89 | 7.1 | 994.2 | 3.1 | SSW | 0 | 19.2 |
| 23.10.2025 | 20:32 | 8.8 | 89 | 7.1 | 994.3 | 3.1 | SW | 0 | 19.2 |
| 23.10.2025 | 20:37 | 8.8 | 89 | 7.1 | 994.4 | 1.3 | S | 0 | 19.2 |
| 23.10.2025 | 20:42 | 8.7 | 89 | 7.0 | 994.4 | 2.2 | SSW | 0 | 19.4 |
| 23.10.2025 | 20:47 | 8.6 | 89 | 6.9 | 994.4 | 2.7 | SSW | 0 | 19.4 |
| 23.10.2025 | 20:52 | 8.6 | 89 | 6.9 | 994.4 | 4.9 | SW | 0 | 19.4 |
| 23.10.2025 | 20:57 | 8.6 | 89 | 6.9 | 994.4 | 3.1 | WSW | 0 | 19.4 |
| 23.10.2025 | 21:02 | 8.6 | 89 | 6.9 | 994.6 | 3.6 | SW | 0 | 19.4 |
| 23.10.2025 | 21:07 | 8.6 | 89 | 6.9 | 994.6 | 6.3 | SSW | 0 | 19.4 |
| 23.10.2025 | 21:12 | 8.5 | 89 | 6.8 | 994.7 | 3.1 | SSW | 0 | 19.4 |
| 23.10.2025 | 21:17 | 8.5 | 89 | 6.8 | 994.9 | 1.3 | SW | 0 | 19.6 |
| 23.10.2025 | 21:22 | 8.4 | 88 | 6.5 | 994.9 | 2.2 | SSW | 0 | 19.8 |
| 23.10.2025 | 21:27 | 8.3 | 89 | 6.6 | 994.8 | 0.9 | WSW | 0 | 19.8 |
| 23.10.2025 | 21:32 | 8.2 | 89 | 6.5 | 994.9 | 2.7 | SW | 0 | 19.8 |
| 23.10.2025 | 21:37 | 8.2 | 89 | 6.5 | 995.0 | 1.3 | SW | 0 | 19.8 |
| 23.10.2025 | 21:42 | 8.2 | 89 | 6.5 | 995.0 | 1.3 | SW | 0 | 19.8 |
| 23.10.2025 | 21:47 | 8.1 | 89 | 6.4 | 995.1 | 1.8 | W | 0 | 19.8 |
| 23.10.2025 | 21:52 | 8.3 | 89 | 6.6 | 995.1 | 1.8 | SSW | 0 | 19.8 |
| 23.10.2025 | 21:57 | 8.3 | 89 | 6.6 | 995.1 | 2.7 | SSW | 0 | 19.8 |
| 23.10.2025 | 22:02 | 8.4 | 89 | 6.7 | 995.2 | 4.0 | S | 0 | 19.8 |
| 23.10.2025 | 22:07 | 8.5 | 89 | 6.8 | 995.3 | 3.1 | SSW | 0 | 19.8 |
| 23.10.2025 | 22:12 | 8.5 | 89 | 6.8 | 995.4 | 2.2 | SSW | 0 | 19.8 |
| 23.10.2025 | 22:17 | 8.4 | 89 | 6.7 | 995.4 | 2.7 | SW | 0 | 19.8 |
| 23.10.2025 | 22:22 | 8.3 | 89 | 6.6 | 995.5 | 1.8 | SSW | 0 | 19.8 |
| 23.10.2025 | 22:27 | 8.2 | 89 | 6.5 | 995.6 | 1.8 | SW | 0 | 19.8 |
| 23.10.2025 | 22:32 | 8.1 | 89 | 6.4 | 995.7 | 3.1 | SW | 0 | 19.8 |
| 23.10.2025 | 22:37 | 8.1 | 89 | 6.4 | 995.7 | 5.8 | SSW | 0 | 19.8 |
| 23.10.2025 | 22:42 | 8.1 | 89 | 6.4 | 995.7 | 3.6 | WSW | 0 | 19.8 |
| 23.10.2025 | 22:47 | 8.1 | 89 | 6.4 | 995.9 | 2.7 | SW | 0 | 19.8 |
| 23.10.2025 | 22:52 | 8.0 | 89 | 6.3 | 996.1 | 2.2 | SW | 0 | 19.8 |
| 23.10.2025 | 22:57 | 8.0 | 89 | 6.3 | 996.0 | 1.3 | S | 0 | 19.8 |
| 23.10.2025 | 23:02 | 8.0 | 90 | 6.5 | 996.1 | 1.3 | SW | 0 | 20.2 |
| 23.10.2025 | 23:08 | 8.0 | 90 | 6.5 | 996.1 | 1.8 | SSW | 0 | 20.4 |
| 23.10.2025 | 23:13 | 8.0 | 90 | 6.5 | 996.2 | 3.6 | SSO | 0 | 20.4 |
| 23.10.2025 | 23:18 | 8.0 | 90 | 6.5 | 996.2 | 1.3 | SSW | 0 | 20.6 |
| 23.10.2025 | 23:23 | 7.9 | 90 | 6.4 | 996.2 | 4.9 | SSO | 0 | 20.8 |
| 23.10.2025 | 23:28 | 7.9 | 90 | 6.4 | 996.2 | 1.8 | SSW | 0 | 21.0 |
| 23.10.2025 | 23:33 | 7.9 | 90 | 6.4 | 996.4 | 4.0 | SSW | 0 | 21.2 |
| 23.10.2025 | 23:38 | 7.8 | 90 | 6.3 | 996.5 | 5.4 | SW | 0 | 21.2 |
| 23.10.2025 | 23:43 | 7.7 | 90 | 6.2 | 996.5 | 2.7 | SSW | 0 | 21.2 |
| 23.10.2025 | 23:48 | 7.6 | 90 | 6.1 | 996.5 | 3.6 | W | 0 | 21.2 |
| 23.10.2025 | 23:53 | 7.5 | 90 | 6.0 | 996.5 | 7.2 | SSW | 0 | 21.2 |
| 23.10.2025 | 23:58 | 7.5 | 90 | 6.0 | 996.6 | 3.6 | SSW | 0 | 21.2 |